PWSweather.com
Personal Weather Stations
Station Observations

CefaluIT

Lat: 38.0324, Lon: 14.02837

Elevation: 92

Station Type: LACROSSE WS 2350

http://www.meteocefalu.altervista.org

Latest ConditionsUpdated 9:50:08 PM GMT+01:01 Monday, Sep 23, 2019
Currently Today's Max Today's Min Today's Average
Temperature 76.3°F24.6°C 85.8°F29.9°C 75.3°F24.1°C 79.5°F26.4°C
Dew Point 69.7°F20.9°C 72.3°F22.4°C 59.6°F15.3°C 66.3°F19.1°C
Winds 3.4 mph SSW5.5 kmh SSW 11.3 mph -18.2 kmh - - 3.1 mph 5.0 kmh
Wind Gusts 3.4 mph5.5 kmh 11.6 mph18.7 kmh - -
Humidity 80% 82% 52% 65%
Pressure 29.87 in1011.5 mb 29.91 in1012.9 mb 29.83 in1010.2 mb -
Hour Temp Dew Point Humidity Winds Wind Gusts Pressure Precip Precip Rate Daily Precip Total
09:50 PM 76.3°F24.6°C 69.7°F20.9°C 80% 3.4 mph SSW5.5 kmh SSW 3.4 mph5.5 kmh 29.87 in1011.5 mb - 0.00 in0.0 mm 0.00 in0.0 mm
09:40 PM 76.3°F24.6°C 69.7°F20.9°C 80% 6.1 mph SW9.8 kmh SW 7.6 mph12.2 kmh 29.87 in1011.5 mb - 0.00 in0.0 mm 0.00 in0.0 mm
09:30 PM 76.3°F24.6°C 70.0°F21.1°C 81% 4.9 mph SSW7.9 kmh SSW 4.9 mph7.9 kmh 29.87 in1011.5 mb - 0.00 in0.0 mm 0.00 in0.0 mm
09:20 PM 76.3°F24.6°C 70.0°F21.1°C 81% 6.0 mph S9.7 kmh S 6.0 mph9.7 kmh 29.88 in1011.9 mb - 0.00 in0.0 mm 0.00 in0.0 mm
09:10 PM 76.3°F24.6°C 70.0°F21.1°C 81% 4.7 mph SSW7.6 kmh SSW 5.1 mph8.2 kmh 29.87 in1011.5 mb - 0.00 in0.0 mm 0.00 in0.0 mm
09:00 PM 76.5°F24.7°C 70.2°F21.2°C 81% 6.3 mph SSW10.1 kmh SSW 6.3 mph10.1 kmh 29.87 in1011.5 mb - 0.00 in0.0 mm 0.00 in0.0 mm
08:50 PM 76.3°F24.6°C 70.0°F21.1°C 81% 5.4 mph S8.7 kmh S 6.5 mph10.5 kmh 29.87 in1011.5 mb - 0.00 in0.0 mm 0.00 in0.0 mm
08:40 PM 76.3°F24.6°C 70.0°F21.1°C 81% 5.1 mph SW8.2 kmh SW 5.1 mph8.2 kmh 29.87 in1011.5 mb - 0.00 in0.0 mm 0.00 in0.0 mm
08:30 PM 76.5°F24.7°C 70.2°F21.2°C 81% 9.9 mph SW15.9 kmh SW 9.4 mph15.1 kmh 29.87 in1011.5 mb - 0.00 in0.0 mm 0.00 in0.0 mm
08:20 PM 76.6°F24.8°C 70.4°F21.3°C 81% 4.2 mph SW6.8 kmh SW 4.2 mph6.8 kmh 29.87 in1011.5 mb - 0.00 in0.0 mm 0.00 in0.0 mm
08:10 PM 76.6°F24.8°C 70.4°F21.3°C 81% 8.3 mph S13.4 kmh S 9.2 mph14.8 kmh 29.86 in1011.2 mb - 0.00 in0.0 mm 0.00 in0.0 mm
08:00 PM 76.8°F24.9°C 70.5°F21.4°C 81% 8.8 mph SSW14.2 kmh SSW 9.4 mph15.1 kmh 29.86 in1011.2 mb - 0.00 in0.0 mm 0.00 in0.0 mm
07:50 PM 76.8°F24.9°C 70.5°F21.4°C 81% 6.0 mph WSW9.7 kmh WSW 6.7 mph10.8 kmh 29.86 in1011.2 mb - 0.00 in0.0 mm 0.00 in0.0 mm
07:40 PM 76.6°F24.8°C 70.7°F21.5°C 82% 6.0 mph SSW9.7 kmh SSW 7.6 mph12.2 kmh 29.86 in1011.2 mb - 0.00 in0.0 mm 0.00 in0.0 mm
07:30 PM 76.6°F24.8°C 70.7°F21.5°C 82% 9.9 mph SSW15.9 kmh SSW 10.5 mph16.9 kmh 29.86 in1011.2 mb - 0.00 in0.0 mm 0.00 in0.0 mm
07:20 PM 76.8°F24.9°C 70.9°F21.6°C 82% 5.9 mph W9.5 kmh W 5.6 mph9.0 kmh 29.86 in1011.2 mb - 0.00 in0.0 mm 0.00 in0.0 mm
07:10 PM 76.8°F24.9°C 70.9°F21.6°C 82% 5.9 mph SSW9.5 kmh SSW 10.3 mph16.6 kmh 29.86 in1011.2 mb - 0.00 in0.0 mm 0.00 in0.0 mm
07:00 PM 76.6°F24.8°C 70.7°F21.5°C 82% 7.4 mph SW11.9 kmh SW 6.9 mph11.1 kmh 29.86 in1011.2 mb - 0.00 in0.0 mm 0.00 in0.0 mm
06:50 PM 76.8°F24.9°C 70.9°F21.6°C 82% 7.6 mph SW12.2 kmh SW 7.8 mph12.6 kmh 29.86 in1011.2 mb - 0.00 in0.0 mm 0.00 in0.0 mm
06:40 PM 76.8°F24.9°C 70.9°F21.6°C 82% 9.5 mph S15.3 kmh S 11.6 mph18.7 kmh 29.86 in1011.2 mb - 0.00 in0.0 mm 0.00 in0.0 mm
06:30 PM 77.2°F25.1°C 70.9°F21.6°C 81% 11.3 mph S18.2 kmh S 11.4 mph18.3 kmh 29.86 in1011.2 mb - 0.00 in0.0 mm 0.00 in0.0 mm
06:20 PM 77.5°F25.3°C 70.9°F21.6°C 80% 6.5 mph WSW10.5 kmh WSW 6.5 mph10.5 kmh 29.86 in1011.2 mb - 0.00 in0.0 mm 0.00 in0.0 mm
06:10 PM 77.6°F25.3°C 70.9°F21.6°C 80% 4.7 mph WNW7.6 kmh WNW 8.5 mph13.7 kmh 29.86 in1011.2 mb - 0.00 in0.0 mm 0.00 in0.0 mm
06:00 PM 77.5°F25.3°C 70.9°F21.6°C 80% 0.8 mph WSW1.3 kmh WSW -- 29.86 in1011.2 mb - 0.00 in0.0 mm 0.00 in0.0 mm
05:50 PM 77.7°F25.4°C 71.1°F21.7°C 80% 2.9 mph W4.7 kmh W 2.9 mph4.7 kmh 29.86 in1011.2 mb - 0.00 in0.0 mm 0.00 in0.0 mm
05:40 PM 77.7°F25.4°C 71.1°F21.7°C 80% 1.9 mph WSW3.1 kmh WSW 2.2 mph3.5 kmh 29.85 in1010.8 mb - 0.00 in0.0 mm 0.00 in0.0 mm
05:30 PM 77.7°F25.4°C 71.1°F21.7°C 80% 1.7 mph NE2.7 kmh NE 1.3 mph2.1 kmh 29.85 in1010.8 mb - 0.00 in0.0 mm 0.00 in0.0 mm
05:20 PM 78.1°F25.6°C 71.0°F21.7°C 79% 2.3 mph ENE3.7 kmh ENE 2.2 mph3.5 kmh 29.85 in1010.8 mb - 0.00 in0.0 mm 0.00 in0.0 mm
05:10 PM 78.4°F25.8°C 71.4°F21.9°C 79% Calm Calm -- 29.85 in1010.8 mb - 0.00 in0.0 mm 0.00 in0.0 mm
05:00 PM 78.4°F25.8°C 71.8°F22.1°C 80% 0.7 mph NE1.1 kmh NE 1.3 mph2.1 kmh 29.85 in1010.8 mb - 0.00 in0.0 mm 0.00 in0.0 mm
04:50 PM 78.3°F25.7°C 71.6°F22.0°C 80% Calm Calm -- 29.85 in1010.8 mb - 0.00 in0.0 mm 0.00 in0.0 mm
04:40 PM 78.4°F25.8°C 72.1°F22.3°C 81% 2.6 mph SW4.2 kmh SW 2.7 mph4.3 kmh 29.85 in1010.8 mb - 0.00 in0.0 mm 0.00 in0.0 mm
04:30 PM 78.6°F25.9°C 72.3°F22.4°C 81% 1.6 mph S2.6 kmh S 1.6 mph2.6 kmh 29.85 in1010.8 mb - 0.00 in0.0 mm 0.00 in0.0 mm
04:20 PM 78.6°F25.9°C 72.3°F22.4°C 81% 2.9 mph SSW4.7 kmh SSW 2.9 mph4.7 kmh 29.85 in1010.8 mb - 0.00 in0.0 mm 0.00 in0.0 mm
04:10 PM 78.6°F25.9°C 71.6°F22.0°C 79% 4.0 mph E6.4 kmh E 4.5 mph7.2 kmh 29.85 in1010.8 mb - 0.00 in0.0 mm 0.00 in0.0 mm
04:00 PM 79.5°F26.4°C 71.3°F21.8°C 76% 4.3 mph NNE6.9 kmh NNE 6.0 mph9.7 kmh 29.85 in1010.8 mb - 0.00 in0.0 mm 0.00 in0.0 mm
03:50 PM 80.2°F26.8°C 71.6°F22.0°C 75% 1.6 mph S2.6 kmh S 1.8 mph2.9 kmh 29.85 in1010.8 mb - 0.00 in0.0 mm 0.00 in0.0 mm
03:40 PM 81.5°F27.5°C 71.2°F21.8°C 71% 0.5 mph E0.8 kmh E 3.6 mph5.8 kmh 29.85 in1010.8 mb - 0.00 in0.0 mm 0.00 in0.0 mm
03:30 PM 82.9°F28.3°C 71.3°F21.8°C 68% 1.8 mph WSW2.9 kmh WSW 1.6 mph2.6 kmh 29.84 in1010.5 mb - 0.00 in0.0 mm 0.00 in0.0 mm
03:20 PM 83.1°F28.4°C 70.1°F21.2°C 65% 1.6 mph ENE2.6 kmh ENE 1.6 mph2.6 kmh 29.85 in1010.8 mb - 0.00 in0.0 mm 0.00 in0.0 mm
03:10 PM 82.8°F28.2°C 68.9°F20.5°C 63% Calm Calm -- 29.85 in1010.8 mb - 0.00 in0.0 mm 0.00 in0.0 mm
03:00 PM 82.9°F28.3°C 69.5°F20.8°C 64% 1.0 mph ENE1.6 kmh ENE -- 29.84 in1010.5 mb - 0.00 in0.0 mm 0.00 in0.0 mm
02:50 PM 84.6°F29.2°C 69.6°F20.9°C 61% 1.3 mph NE2.1 kmh NE 1.3 mph2.1 kmh 29.85 in1010.8 mb - 0.00 in0.0 mm 0.00 in0.0 mm
02:40 PM 85.0°F29.4°C 68.1°F20.1°C 57% 0.2 mph N0.3 kmh N 1.3 mph2.1 kmh 29.85 in1010.8 mb - 0.00 in0.0 mm 0.00 in0.0 mm
02:30 PM 85.1°F29.5°C 67.6°F19.8°C 56% 2.9 mph NW4.7 kmh NW 2.0 mph3.2 kmh 29.85 in1010.8 mb - 0.00 in0.0 mm 0.00 in0.0 mm
02:20 PM 85.1°F29.5°C 67.6°F19.8°C 56% 3.1 mph W5.0 kmh W 3.1 mph5.0 kmh 29.85 in1010.8 mb - 0.00 in0.0 mm 0.00 in0.0 mm
02:10 PM 84.8°F29.3°C 67.9°F19.9°C 57% 4.5 mph WNW7.2 kmh WNW 4.5 mph7.2 kmh 29.85 in1010.8 mb - 0.00 in0.0 mm 0.00 in0.0 mm
02:00 PM 84.2°F29.0°C 67.8°F19.9°C 58% 1.6 mph ENE2.6 kmh ENE -- 29.85 in1010.8 mb - 0.00 in0.0 mm 0.00 in0.0 mm
01:50 PM 84.6°F29.2°C 67.6°F19.8°C 57% 2.9 mph NE4.7 kmh NE 2.9 mph4.7 kmh 29.85 in1010.8 mb - 0.00 in0.0 mm 0.00 in0.0 mm
01:40 PM 84.2°F29.0°C 68.3°F20.2°C 59% 2.9 mph NE4.7 kmh NE 2.9 mph4.7 kmh 29.85 in1010.8 mb - 0.00 in0.0 mm 0.00 in0.0 mm
01:30 PM 84.6°F29.2°C 67.1°F19.5°C 56% 2.2 mph E3.5 kmh E 2.2 mph3.5 kmh 29.84 in1010.5 mb - 0.00 in0.0 mm 0.00 in0.0 mm
01:20 PM 83.5°F28.6°C 67.6°F19.8°C 59% 2.5 mph NE4.0 kmh NE 2.5 mph4.0 kmh 29.83 in1010.2 mb - 0.00 in0.0 mm 0.00 in0.0 mm
01:10 PM 84.4°F29.1°C 67.0°F19.4°C 56% 2.6 mph E4.2 kmh E 4.0 mph6.4 kmh 29.84 in1010.5 mb - 0.00 in0.0 mm 0.00 in0.0 mm
01:00 PM 84.6°F29.2°C 67.1°F19.5°C 56% 5.8 mph NE9.3 kmh NE 5.8 mph9.3 kmh 29.84 in1010.5 mb - 0.00 in0.0 mm 0.00 in0.0 mm
12:50 PM 84.0°F28.9°C 67.1°F19.5°C 57% 2.9 mph ENE4.7 kmh ENE 2.9 mph4.7 kmh 29.84 in1010.5 mb - 0.00 in0.0 mm 0.00 in0.0 mm
12:40 PM 84.7°F29.3°C 66.7°F19.3°C 55% 3.6 mph NE5.8 kmh NE 6.3 mph10.1 kmh 29.84 in1010.5 mb - 0.00 in0.0 mm 0.00 in0.0 mm
12:30 PM 84.9°F29.4°C 66.9°F19.4°C 55% 2.5 mph ENE4.0 kmh ENE 2.7 mph4.3 kmh 29.84 in1010.5 mb - 0.00 in0.0 mm 0.00 in0.0 mm
12:20 PM 85.1°F29.5°C 67.1°F19.5°C 55% 3.1 mph NE5.0 kmh NE 3.1 mph5.0 kmh 29.84 in1010.5 mb - 0.00 in0.0 mm 0.00 in0.0 mm
12:10 PM 85.8°F29.9°C 66.2°F19.0°C 52% 5.2 mph E8.4 kmh E 5.4 mph8.7 kmh 29.84 in1010.5 mb - 0.00 in0.0 mm 0.00 in0.0 mm
12:00 PM 84.9°F29.4°C 65.9°F18.8°C 53% 4.9 mph NE7.9 kmh NE 5.4 mph8.7 kmh 29.85 in1010.8 mb - 0.00 in0.0 mm 0.00 in0.0 mm
11:50 AM 84.0°F28.9°C 66.6°F19.2°C 56% 2.0 mph NE3.2 kmh NE 2.0 mph3.2 kmh 29.85 in1010.8 mb - 0.00 in0.0 mm 0.00 in0.0 mm
11:40 AM 84.6°F29.2°C 66.6°F19.2°C 55% 2.9 mph NE4.7 kmh NE 6.3 mph10.1 kmh 29.85 in1010.8 mb - 0.00 in0.0 mm 0.00 in0.0 mm
11:30 AM 84.4°F29.1°C 67.0°F19.4°C 56% 5.8 mph ENE9.3 kmh ENE 5.8 mph9.3 kmh 29.86 in1011.2 mb - 0.00 in0.0 mm 0.00 in0.0 mm
11:20 AM 84.4°F29.1°C 67.5°F19.7°C 57% 4.0 mph NE6.4 kmh NE 4.9 mph7.9 kmh 29.86 in1011.2 mb - 0.00 in0.0 mm 0.00 in0.0 mm
11:10 AM 84.4°F29.1°C 67.0°F19.4°C 56% 4.7 mph NE7.6 kmh NE 5.4 mph8.7 kmh 29.87 in1011.5 mb - 0.00 in0.0 mm 0.00 in0.0 mm
11:00 AM 84.7°F29.3°C 66.3°F19.1°C 54% 5.6 mph ENE9.0 kmh ENE 5.4 mph8.7 kmh 29.88 in1011.9 mb - 0.00 in0.0 mm 0.00 in0.0 mm
10:50 AM 84.6°F29.2°C 66.6°F19.2°C 55% 5.2 mph ENE8.4 kmh ENE 5.1 mph8.2 kmh 29.88 in1011.9 mb - 0.00 in0.0 mm 0.00 in0.0 mm
10:40 AM 83.5°F28.6°C 67.7°F19.8°C 59% 4.2 mph NE6.8 kmh NE 6.3 mph10.1 kmh 29.87 in1011.5 mb - 0.00 in0.0 mm 0.00 in0.0 mm
10:30 AM 82.8°F28.2°C 67.0°F19.4°C 59% 2.0 mph E3.2 kmh E 2.0 mph3.2 kmh 29.88 in1011.9 mb - 0.00 in0.0 mm 0.00 in0.0 mm
10:20 AM 82.0°F27.8°C 65.8°F18.8°C 58% 4.5 mph NNE7.2 kmh NNE 4.7 mph7.6 kmh 29.88 in1011.9 mb - 0.00 in0.0 mm 0.00 in0.0 mm
10:10 AM 81.8°F27.7°C 65.6°F18.7°C 58% 4.0 mph NE6.4 kmh NE 4.5 mph7.2 kmh 29.89 in1012.2 mb - 0.00 in0.0 mm 0.00 in0.0 mm
10:00 AM 82.2°F27.9°C 66.0°F18.9°C 58% 5.1 mph ENE8.2 kmh ENE 4.0 mph6.4 kmh 29.90 in1012.5 mb - 0.00 in0.0 mm 0.00 in0.0 mm
09:50 AM 84.7°F29.3°C 67.8°F19.9°C 57% 4.7 mph NE7.6 kmh NE 4.7 mph7.6 kmh 29.90 in1012.5 mb - 0.00 in0.0 mm 0.00 in0.0 mm
09:40 AM 84.1°F28.9°C 67.8°F19.9°C 58% 2.8 mph SW4.5 kmh SW 2.9 mph4.7 kmh 29.90 in1012.5 mb - 0.00 in0.0 mm 0.00 in0.0 mm
09:30 AM 83.1°F28.4°C 66.8°F19.3°C 58% 5.7 mph S9.2 kmh S 6.9 mph11.1 kmh 29.90 in1012.5 mb - 0.00 in0.0 mm 0.00 in0.0 mm
09:20 AM 81.9°F27.7°C 66.1°F18.9°C 59% 4.2 mph SSE6.8 kmh SSE 4.2 mph6.8 kmh 29.91 in1012.9 mb - 0.00 in0.0 mm 0.00 in0.0 mm
09:10 AM 81.4°F27.4°C 65.7°F18.7°C 59% 2.2 mph SSW3.5 kmh SSW 2.2 mph3.5 kmh 29.91 in1012.9 mb - 0.00 in0.0 mm 0.00 in0.0 mm
09:00 AM 81.5°F27.5°C 64.8°F18.2°C 57% 2.6 mph SSW4.2 kmh SSW 3.1 mph5.0 kmh 29.91 in1012.9 mb - 0.00 in0.0 mm 0.00 in0.0 mm
08:50 AM 81.5°F27.5°C 65.3°F18.5°C 58% 2.9 mph WSW4.7 kmh WSW 2.9 mph4.7 kmh 29.91 in1012.9 mb - 0.00 in0.0 mm 0.00 in0.0 mm
08:40 AM 81.1°F27.3°C 65.5°F18.6°C 59% 1.6 mph W2.6 kmh W 2.5 mph4.0 kmh 29.91 in1012.9 mb - 0.00 in0.0 mm 0.00 in0.0 mm
08:30 AM 80.8°F27.1°C 65.1°F18.4°C 59% 2.0 mph WSW3.2 kmh WSW 3.1 mph5.0 kmh 29.91 in1012.9 mb - 0.00 in0.0 mm 0.00 in0.0 mm
08:20 AM 80.4°F26.9°C 64.8°F18.2°C 59% Calm Calm -- 29.91 in1012.9 mb - 0.00 in0.0 mm 0.00 in0.0 mm
08:10 AM 80.2°F26.8°C 65.1°F18.4°C 60% Calm Calm -- 29.91 in1012.9 mb - 0.00 in0.0 mm 0.00 in0.0 mm
08:00 AM 79.5°F26.4°C 64.9°F18.3°C 61% 1.4 mph NNE2.3 kmh NNE 0.9 mph1.4 kmh 29.90 in1012.5 mb - 0.00 in0.0 mm 0.00 in0.0 mm
07:50 AM 79.0°F26.1°C 65.8°F18.8°C 64% Calm Calm -- 29.90 in1012.5 mb - 0.00 in0.0 mm 0.00 in0.0 mm
07:40 AM 79.0°F26.1°C 66.2°F19.0°C 65% 2.5 mph SW4.0 kmh SW 2.7 mph4.3 kmh 29.91 in1012.9 mb - 0.00 in0.0 mm 0.00 in0.0 mm
07:30 AM 78.6°F25.9°C 65.4°F18.6°C 64% 1.7 mph S2.7 kmh S -- 29.90 in1012.5 mb - 0.00 in0.0 mm 0.00 in0.0 mm
07:20 AM 78.1°F25.6°C 64.5°F18.1°C 63% 2.7 mph S4.3 kmh S 2.7 mph4.3 kmh 29.91 in1012.9 mb - 0.00 in0.0 mm 0.00 in0.0 mm
07:10 AM 77.9°F25.5°C 63.8°F17.7°C 62% 3.3 mph SSW5.3 kmh SSW 3.4 mph5.5 kmh 29.91 in1012.9 mb - 0.00 in0.0 mm 0.00 in0.0 mm
07:00 AM 77.9°F25.5°C 63.8°F17.7°C 62% 2.1 mph SSW3.4 kmh SSW 2.2 mph3.5 kmh 29.91 in1012.9 mb - 0.00 in0.0 mm 0.00 in0.0 mm
06:50 AM 77.4°F25.2°C 63.3°F17.4°C 62% 1.1 mph SSE1.8 kmh SSE 1.1 mph1.8 kmh 29.90 in1012.5 mb - 0.00 in0.0 mm 0.00 in0.0 mm
06:40 AM 76.8°F24.9°C 63.2°F17.3°C 63% 2.2 mph S3.5 kmh S 2.2 mph3.5 kmh 29.90 in1012.5 mb - 0.00 in0.0 mm 0.00 in0.0 mm
06:30 AM 75.9°F24.4°C 61.5°F16.4°C 61% 2.9 mph SSW4.7 kmh SSW 3.6 mph5.8 kmh 29.90 in1012.5 mb - 0.00 in0.0 mm 0.00 in0.0 mm
06:20 AM 76.5°F24.7°C 62.0°F16.7°C 61% 2.8 mph S4.5 kmh S 3.1 mph5.0 kmh 29.90 in1012.5 mb - 0.00 in0.0 mm 0.00 in0.0 mm
06:10 AM 75.9°F24.4°C 61.0°F16.1°C 60% 2.7 mph SE4.3 kmh SE 3.6 mph5.8 kmh 29.90 in1012.5 mb - 0.00 in0.0 mm 0.00 in0.0 mm
06:00 AM 75.9°F24.4°C 61.0°F16.1°C 60% 1.5 mph SSW2.4 kmh SSW 1.8 mph2.9 kmh 29.89 in1012.2 mb - 0.00 in0.0 mm 0.00 in0.0 mm
05:50 AM 76.3°F24.6°C 60.9°F16.1°C 59% 2.4 mph S3.9 kmh S 2.5 mph4.0 kmh 29.89 in1012.2 mb - 0.00 in0.0 mm 0.00 in0.0 mm
05:40 AM 75.9°F24.4°C 61.0°F16.1°C 60% 4.0 mph S6.4 kmh S 4.0 mph6.4 kmh 29.88 in1011.9 mb - 0.00 in0.0 mm 0.00 in0.0 mm
05:30 AM 76.3°F24.6°C 60.9°F16.1°C 59% 2.6 mph S4.2 kmh S 2.7 mph4.3 kmh 29.88 in1011.9 mb - 0.00 in0.0 mm 0.00 in0.0 mm
05:20 AM 75.6°F24.2°C 60.2°F15.7°C 59% 3.3 mph S5.3 kmh S 3.1 mph5.0 kmh 29.88 in1011.9 mb - 0.00 in0.0 mm 0.00 in0.0 mm
05:10 AM 75.9°F24.4°C 60.6°F15.9°C 59% Calm Calm -- 29.88 in1011.9 mb - 0.00 in0.0 mm 0.00 in0.0 mm
05:00 AM 75.3°F24.1°C 60.0°F15.6°C 59% 1.1 mph S1.8 kmh S 1.3 mph2.1 kmh 29.88 in1011.9 mb - 0.00 in0.0 mm 0.00 in0.0 mm
04:50 AM 75.4°F24.1°C 59.6°F15.3°C 58% Calm Calm -- 29.88 in1011.9 mb - 0.00 in0.0 mm 0.00 in0.0 mm
04:40 AM 76.6°F24.8°C 60.8°F16.0°C 58% Calm Calm -- 29.88 in1011.9 mb - 0.00 in0.0 mm 0.00 in0.0 mm
04:30 AM 76.8°F24.9°C 60.4°F15.8°C 57% Calm Calm -- 29.88 in1011.9 mb - 0.00 in0.0 mm 0.00 in0.0 mm
04:20 AM 77.2°F25.1°C 60.8°F16.0°C 57% Calm Calm -- 29.87 in1011.5 mb - 0.00 in0.0 mm 0.00 in0.0 mm
04:10 AM 77.5°F25.3°C 60.6°F15.9°C 56% 1.5 mph SSE2.4 kmh SSE 1.6 mph2.6 kmh 29.87 in1011.5 mb - 0.00 in0.0 mm 0.00 in0.0 mm
04:00 AM 77.9°F25.5°C 60.9°F16.1°C 56% 2.5 mph S4.0 kmh S 2.9 mph4.7 kmh 29.86 in1011.2 mb - 0.00 in0.0 mm 0.00 in0.0 mm
03:50 AM 77.7°F25.4°C 60.8°F16.0°C 56% 2.7 mph S4.3 kmh S 2.5 mph4.0 kmh 29.86 in1011.2 mb - 0.00 in0.0 mm 0.00 in0.0 mm
03:40 AM 77.5°F25.3°C 61.1°F16.2°C 57% 3.1 mph S5.0 kmh S 3.1 mph5.0 kmh 29.86 in1011.2 mb - 0.00 in0.0 mm 0.00 in0.0 mm
03:30 AM 76.8°F24.9°C 60.4°F15.8°C 57% 0.4 mph SSE0.6 kmh SSE 2.7 mph4.3 kmh 29.86 in1011.2 mb - 0.00 in0.0 mm 0.00 in0.0 mm
03:20 AM 77.7°F25.4°C 60.8°F16.0°C 56% 0.6 mph WSW1.0 kmh WSW -- 29.86 in1011.2 mb - 0.00 in0.0 mm 0.00 in0.0 mm
03:10 AM 78.1°F25.6°C 61.1°F16.2°C 56% 2.9 mph ESE4.7 kmh ESE 2.9 mph4.7 kmh 29.86 in1011.2 mb - 0.00 in0.0 mm 0.00 in0.0 mm
03:00 AM 77.7°F25.4°C 61.3°F16.3°C 57% 3.6 mph SE5.8 kmh SE 3.8 mph6.1 kmh 29.85 in1010.8 mb - 0.00 in0.0 mm 0.00 in0.0 mm
02:50 AM 77.9°F25.5°C 60.9°F16.1°C 56% 3.6 mph SSE5.8 kmh SSE 3.6 mph5.8 kmh 29.85 in1010.8 mb - 0.00 in0.0 mm 0.00 in0.0 mm
02:40 AM 79.0°F26.1°C 61.9°F16.6°C 56% 0.1 mph SSE0.2 kmh SSE -- 29.85 in1010.8 mb - 0.00 in0.0 mm 0.00 in0.0 mm
02:30 AM 78.6°F25.9°C 61.6°F16.4°C 56% 2.6 mph S4.2 kmh S 2.7 mph4.3 kmh 29.85 in1010.8 mb - 0.00 in0.0 mm 0.00 in0.0 mm
02:20 AM 79.0°F26.1°C 62.4°F16.9°C 57% 1.1 mph SSW1.8 kmh SSW -- 29.85 in1010.8 mb - 0.00 in0.0 mm 0.00 in0.0 mm
02:10 AM 78.6°F25.9°C 62.1°F16.7°C 57% 1.3 mph SE2.1 kmh SE 1.3 mph2.1 kmh 29.85 in1010.8 mb - 0.00 in0.0 mm 0.00 in0.0 mm
02:00 AM 78.6°F25.9°C 62.1°F16.7°C 57% 1.3 mph SE2.1 kmh SE 1.3 mph2.1 kmh 29.85 in1010.8 mb - 0.00 in0.0 mm 0.00 in0.0 mm
01:50 AM 78.6°F25.9°C 62.1°F16.7°C 57% 1.4 mph E2.3 kmh E -- 29.85 in1010.8 mb - 0.00 in0.0 mm 0.00 in0.0 mm
01:40 AM 78.3°F25.7°C 61.8°F16.6°C 57% 0.9 mph SSE1.4 kmh SSE 0.9 mph1.4 kmh 29.85 in1010.8 mb - 0.00 in0.0 mm 0.00 in0.0 mm
01:30 AM 78.4°F25.8°C 62.4°F16.9°C 58% Calm Calm -- 29.85 in1010.8 mb - 0.00 in0.0 mm 0.00 in0.0 mm
01:20 AM 78.1°F25.6°C 62.1°F16.7°C 58% 1.5 mph E2.4 kmh E -- 29.85 in1010.8 mb - 0.00 in0.0 mm 0.00 in0.0 mm
01:10 AM 78.1°F25.6°C 62.1°F16.7°C 58% 2.0 mph S3.2 kmh S 2.0 mph3.2 kmh 29.85 in1010.8 mb - 0.00 in0.0 mm 0.00 in0.0 mm
01:00 AM 77.6°F25.3°C 62.2°F16.8°C 59% 4.9 mph SSE7.9 kmh SSE 5.1 mph8.2 kmh 29.85 in1010.8 mb - 0.00 in0.0 mm 0.00 in0.0 mm
12:50 AM 77.2°F25.1°C 62.2°F16.8°C 60% 0.5 mph SSE0.8 kmh SSE -- 29.85 in1010.8 mb - 0.00 in0.0 mm 0.00 in0.0 mm
12:40 AM 77.5°F25.3°C 62.1°F16.7°C 59% 1.1 mph S1.8 kmh S 1.1 mph1.8 kmh 29.85 in1010.8 mb - 0.00 in0.0 mm 0.00 in0.0 mm
12:30 AM 77.2°F25.1°C 62.2°F16.8°C 60% 3.1 mph SSE5.0 kmh SSE 3.1 mph5.0 kmh 29.85 in1010.8 mb - 0.00 in0.0 mm 0.00 in0.0 mm
12:20 AM 76.9°F24.9°C 62.4°F16.9°C 61% 2.9 mph SSE4.7 kmh SSE 4.2 mph6.8 kmh 29.85 in1010.8 mb - 0.00 in0.0 mm 0.00 in0.0 mm
12:10 AM 77.4°F25.2°C 63.3°F17.4°C 62% 0.1 mph SE0.2 kmh SE -- 29.85 in1010.8 mb - 0.00 in0.0 mm 0.00 in0.0 mm
12:00 AM 76.1°F24.5°C 62.6°F17.0°C 63% 2.2 mph S3.5 kmh S 2.2 mph3.5 kmh 29.86 in1011.2 mb - 0.00 in0.0 mm 0.00 in0.0 mm